createdAt,value
2022-12-08T00:01:22.638Z,19.95
2022-12-08T00:03:50.442Z,19.27
2022-12-08T00:06:41.754Z,24.55
2022-12-08T00:09:27.304Z,22.23
2022-12-08T00:12:02.827Z,21.50
2022-12-08T00:14:32.392Z,20.85
2022-12-08T00:17:00.249Z,17.27
2022-12-08T00:19:28.057Z,16.58
2022-12-08T00:21:55.525Z,19.52
2022-12-08T00:24:24.273Z,17.23
2022-12-08T00:26:51.174Z,15.30
2022-12-08T00:29:18.733Z,15.38
2022-12-08T00:31:45.772Z,15.25
2022-12-08T00:34:14.159Z,17.67
2022-12-08T00:36:41.579Z,16.63
2022-12-08T00:39:08.619Z,15.32
2022-12-08T00:41:54.414Z,14.57
2022-12-08T00:44:21.315Z,12.88
2022-12-08T00:46:48.859Z,33.15
2022-12-08T00:49:18.789Z,35.15
2022-12-08T00:51:45.705Z,31.33
2022-12-08T00:54:13.029Z,28.70
2022-12-08T00:56:39.941Z,26.10
2022-12-08T00:59:07.661Z,29.63
2022-12-08T01:01:38.088Z,26.55
2022-12-08T01:04:06.719Z,24.20
2022-12-08T01:06:35.437Z,24.25
2022-12-08T01:09:03.724Z,25.30
2022-12-08T01:11:30.524Z,22.83
2022-12-08T01:13:57.351Z,16.75
2022-12-08T01:16:30.535Z,13.90
2022-12-08T01:18:58.710Z,14.32
2022-12-08T01:21:26.001Z,19.88
2022-12-08T01:23:54.024Z,21.30
2022-12-08T01:26:21.137Z,17.23
2022-12-08T01:28:48.383Z,15.73
2022-12-08T01:31:18.560Z,15.68
2022-12-08T01:33:45.985Z,10.13
2022-12-08T01:36:20.733Z,8.40
2022-12-08T01:38:47.523Z,8.80
2022-12-08T01:41:19.528Z,8.55
2022-12-08T01:44:23.649Z,9.18
2022-12-08T01:46:53.250Z,11.15
2022-12-08T01:49:33.764Z,11.63
2022-12-08T01:52:09.107Z,12.85
2022-12-08T01:55:05.237Z,10.25
2022-12-08T01:57:40.474Z,10.73
2022-12-08T02:00:13.904Z,10.13
2022-12-08T02:02:57.285Z,10.07
2022-12-08T02:05:28.234Z,11.48
2022-12-08T02:07:57.357Z,9.63
2022-12-08T02:10:28.236Z,9.30
2022-12-08T02:12:58.062Z,11.20
2022-12-08T02:15:42.956Z,12.93
2022-12-08T02:18:47.872Z,11.93
2022-12-08T02:21:37.020Z,14.00
2022-12-08T02:24:44.825Z,10.23
2022-12-08T02:27:11.614Z,9.38
2022-12-08T02:30:08.897Z,10.23
2022-12-08T02:32:57.300Z,9.32
2022-12-08T02:35:37.790Z,10.15
2022-12-08T02:38:04.786Z,7.10
2022-12-08T02:40:39.804Z,7.22
2022-12-08T02:43:17.772Z,8.40
2022-12-08T02:45:58.065Z,6.43
2022-12-08T02:48:28.421Z,6.47
2022-12-08T02:50:55.532Z,6.50
2022-12-08T02:53:22.212Z,6.05
2022-12-08T02:56:03.581Z,10.20
2022-12-08T02:58:54.353Z,10.30
2022-12-08T03:01:35.828Z,10.15
2022-12-08T03:04:22.822Z,8.75
2022-12-08T03:07:04.929Z,8.38
2022-12-08T03:09:56.664Z,7.55
2022-12-08T03:12:30.575Z,7.78
2022-12-08T03:15:03.944Z,8.95
2022-12-08T03:17:32.235Z,6.90
2022-12-08T03:20:03.946Z,6.38
2022-12-08T03:22:32.386Z,5.80
2022-12-08T03:24:59.093Z,6.85
2022-12-08T03:27:29.528Z,5.72
2022-12-08T03:29:58.340Z,7.43
2022-12-08T03:32:47.972Z,6.38
2022-12-08T03:35:19.356Z,6.70
2022-12-08T03:37:46.189Z,5.30
2022-12-08T03:40:17.625Z,7.13
2022-12-08T03:42:44.442Z,8.27
2022-12-08T03:45:11.427Z,9.20
2022-12-08T03:47:38.180Z,9.95
2022-12-08T03:50:06.000Z,8.80
2022-12-08T03:52:33.098Z,10.32
2022-12-08T03:54:59.743Z,10.13
2022-12-08T03:57:26.553Z,8.88
2022-12-08T03:59:53.278Z,8.90
2022-12-08T04:02:21.772Z,8.68
2022-12-08T04:04:50.867Z,9.88
2022-12-08T04:07:17.656Z,9.00
2022-12-08T04:09:45.508Z,9.35
2022-12-08T04:12:12.281Z,8.73
2022-12-08T04:14:39.007Z,9.18
2022-12-08T04:17:05.840Z,7.47
2022-12-08T04:19:32.631Z,9.38
2022-12-08T04:21:59.422Z,9.98
2022-12-08T04:24:26.205Z,8.10
2022-12-08T04:26:52.983Z,8.10
2022-12-08T04:29:22.384Z,9.55
2022-12-08T04:31:49.185Z,10.10
2022-12-08T04:34:16.012Z,9.25
2022-12-08T04:36:42.726Z,7.72
2022-12-08T04:39:09.446Z,8.38
2022-12-08T04:41:36.276Z,8.20
2022-12-08T04:44:02.999Z,7.38
2022-12-08T04:46:29.882Z,9.63
2022-12-08T04:48:56.686Z,7.18
2022-12-08T04:51:23.833Z,7.90
2022-12-08T04:53:50.586Z,8.35
2022-12-08T04:56:19.136Z,9.32
2022-12-08T04:58:46.208Z,9.02
2022-12-08T05:01:13.586Z,8.48
2022-12-08T05:03:40.334Z,6.88
2022-12-08T05:06:07.419Z,7.30
2022-12-08T05:08:34.362Z,7.65
2022-12-08T05:11:09.940Z,7.90
2022-12-08T05:13:36.762Z,7.03
2022-12-08T05:16:17.308Z,5.68
2022-12-08T05:18:44.457Z,6.47
2022-12-08T05:21:11.184Z,5.50
2022-12-08T05:23:37.972Z,4.88
2022-12-08T05:26:04.839Z,5.28
2022-12-08T05:28:46.876Z,4.03
2022-12-08T05:31:15.460Z,4.22
2022-12-08T05:33:42.751Z,5.28
2022-12-08T05:36:10.084Z,4.93
2022-12-08T05:38:36.860Z,4.85
2022-12-08T05:41:04.444Z,5.18
2022-12-08T05:43:31.175Z,4.75
2022-12-08T05:45:58.184Z,3.75
2022-12-08T05:48:24.950Z,4.57
2022-12-08T05:50:52.102Z,4.53
2022-12-08T05:53:20.435Z,4.82
2022-12-08T05:55:47.852Z,5.15
2022-12-08T05:58:17.530Z,4.90
2022-12-08T06:00:45.316Z,4.80
2022-12-08T06:03:13.080Z,4.88
2022-12-08T06:05:41.196Z,4.97
2022-12-08T06:08:08.212Z,5.13
2022-12-08T06:10:35.105Z,5.10
2022-12-08T06:13:01.878Z,4.45
2022-12-08T06:15:28.567Z,4.30
2022-12-08T06:17:55.386Z,3.67
2022-12-08T06:20:22.148Z,4.53
2022-12-08T06:22:48.997Z,3.55
2022-12-08T06:25:15.757Z,4.03
2022-12-08T06:27:42.495Z,4.85
2022-12-08T06:30:09.511Z,4.40
2022-12-08T06:32:36.844Z,3.83
2022-12-08T06:35:03.895Z,4.30
2022-12-08T06:37:30.652Z,4.40
2022-12-08T06:39:57.483Z,4.20
2022-12-08T06:42:43.123Z,4.60
2022-12-08T06:45:11.705Z,4.18
2022-12-08T06:47:38.648Z,3.90
2022-12-08T06:50:06.420Z,3.53
2022-12-08T06:52:34.909Z,5.93
2022-12-08T06:55:03.503Z,4.30
2022-12-08T06:57:31.468Z,3.65
2022-12-08T06:59:58.254Z,4.25
2022-12-08T07:02:25.018Z,3.47
2022-12-08T07:04:51.980Z,4.10
2022-12-08T07:07:18.769Z,4.03
2022-12-08T07:09:48.268Z,4.30
2022-12-08T07:12:15.015Z,3.83
2022-12-08T07:14:41.934Z,4.25
2022-12-08T07:17:08.733Z,4.00
2022-12-08T07:19:35.510Z,4.45
2022-12-08T07:22:02.234Z,4.13
2022-12-08T07:24:29.069Z,5.60
2022-12-08T07:26:55.829Z,5.95
2022-12-08T07:29:26.235Z,5.80
2022-12-08T07:31:53.339Z,4.50
2022-12-08T07:34:20.090Z,5.85
2022-12-08T07:36:46.960Z,6.57
2022-12-08T07:39:13.820Z,5.53
2022-12-08T07:41:40.653Z,4.80
2022-12-08T07:44:07.418Z,5.80
2022-12-08T07:46:34.328Z,4.93
2022-12-08T07:49:01.333Z,4.93
2022-12-08T07:51:28.315Z,4.68
2022-12-08T07:53:55.428Z,5.18
2022-12-08T07:56:22.945Z,6.88
2022-12-08T07:58:50.044Z,11.88
2022-12-08T08:01:22.662Z,19.70
2022-12-08T08:03:50.333Z,18.40
2022-12-08T08:06:17.163Z,22.40
2022-12-08T08:08:44.280Z,15.45
2022-12-08T08:11:18.992Z,16.10
2022-12-08T08:13:48.200Z,18.73
2022-12-08T08:16:15.068Z,18.55
2022-12-08T08:18:42.274Z,19.05
2022-12-08T08:21:43.329Z,21.00
2022-12-08T08:23:56.615Z,20.05
2022-12-08T08:26:23.398Z,17.80
2022-12-08T08:28:50.309Z,23.17
2022-12-08T08:31:17.133Z,22.02
2022-12-08T08:33:43.961Z,21.33
2022-12-08T08:36:11.574Z,22.13
2022-12-08T08:38:42.859Z,20.83
2022-12-08T08:41:11.074Z,19.65
2022-12-08T08:43:38.899Z,49.55
2022-12-08T08:46:07.014Z,32.53
2022-12-08T08:48:34.005Z,27.90
2022-12-08T08:51:09.086Z,23.20
2022-12-08T08:53:36.378Z,22.40
2022-12-08T08:56:05.227Z,21.90
2022-12-08T08:58:32.816Z,21.17
2022-12-08T09:00:59.721Z,20.95
2022-12-08T09:03:26.781Z,21.50
2022-12-08T09:05:56.228Z,19.98
2022-12-08T09:08:23.718Z,18.17
2022-12-08T09:10:50.619Z,20.88
2022-12-08T09:13:17.503Z,19.58
2022-12-08T09:15:44.376Z,19.92
2022-12-08T09:18:11.131Z,16.00
2022-12-08T09:20:39.887Z,16.60
2022-12-08T09:23:06.895Z,14.85
2022-12-08T09:25:33.846Z,16.10
2022-12-08T09:28:00.554Z,14.15
2022-12-08T09:30:28.152Z,16.23
2022-12-08T09:32:55.003Z,16.50
2022-12-08T09:35:21.832Z,16.35
2022-12-08T09:37:48.563Z,14.52
2022-12-08T09:40:18.865Z,15.00
2022-12-08T09:43:12.376Z,15.73
2022-12-08T09:45:39.701Z,18.65
2022-12-08T09:48:18.788Z,19.33
2022-12-08T09:50:55.240Z,16.08
2022-12-08T09:53:45.422Z,14.05
2022-12-08T09:56:14.808Z,11.95
2022-12-08T09:59:02.112Z,10.48
2022-12-08T10:01:31.480Z,10.90
2022-12-08T10:03:58.933Z,10.63
2022-12-08T10:06:55.664Z,10.75
2022-12-08T10:12:08.149Z,7.55
2022-12-08T10:14:47.228Z,6.68
2022-12-08T10:17:20.951Z,6.75
2022-12-08T10:19:49.961Z,7.70
2022-12-08T10:22:25.590Z,7.38
2022-12-08T10:25:01.377Z,7.50
2022-12-08T10:27:28.293Z,6.50
2022-12-08T10:29:55.246Z,7.30
2022-12-08T10:32:24.405Z,6.97
2022-12-08T10:35:12.104Z,9.75
2022-12-08T10:37:39.755Z,7.78
2022-12-08T10:40:13.434Z,6.30
2022-12-08T10:42:50.930Z,7.22
2022-12-08T10:45:26.792Z,6.72
2022-12-08T10:47:58.303Z,5.78
2022-12-08T10:50:55.920Z,5.50
2022-12-08T10:53:28.495Z,5.95
2022-12-08T10:56:04.123Z,6.25
2022-12-08T10:58:34.181Z,6.55
2022-12-08T11:01:06.904Z,5.28
2022-12-08T11:03:47.733Z,4.72
2022-12-08T11:06:30.728Z,4.30
2022-12-08T11:09:00.308Z,3.97
2022-12-08T11:11:54.438Z,4.55
2022-12-08T11:14:24.290Z,4.53
2022-12-08T11:16:54.961Z,5.22
2022-12-08T11:19:22.116Z,4.05
2022-12-08T11:21:48.958Z,4.22
2022-12-08T11:24:15.697Z,4.22
2022-12-08T11:26:51.536Z,4.15
2022-12-08T11:29:18.817Z,4.38
2022-12-08T11:31:53.531Z,4.55
2022-12-08T11:34:29.629Z,3.10
2022-12-08T11:36:57.459Z,3.90
2022-12-08T11:39:29.392Z,5.43
2022-12-08T11:41:58.381Z,4.10
2022-12-08T11:44:38.317Z,3.35
2022-12-08T11:47:20.597Z,2.58
2022-12-08T11:49:49.156Z,3.38
2022-12-08T11:52:26.566Z,2.88
2022-12-08T11:55:26.784Z,2.75
2022-12-08T11:57:56.529Z,2.40
2022-12-08T12:00:23.502Z,2.88
2022-12-08T12:02:59.754Z,2.85
2022-12-08T12:06:08.808Z,2.90
2022-12-08T12:08:37.548Z,2.60
2022-12-08T12:11:35.985Z,2.42
2022-12-08T12:14:15.770Z,2.78
2022-12-08T12:17:02.242Z,3.03
2022-12-08T12:19:36.534Z,2.95
2022-12-08T12:22:17.854Z,3.33
2022-12-08T12:24:49.585Z,3.38
2022-12-08T12:30:02.914Z,2.70
2022-12-08T12:32:43.403Z,2.47
2022-12-08T12:35:35.811Z,3.42
2022-12-08T12:38:35.400Z,2.53
2022-12-08T12:41:04.914Z,3.05
2022-12-08T12:43:53.404Z,3.00
2022-12-08T12:46:22.960Z,2.47
2022-12-08T12:48:51.115Z,3.42
2022-12-08T12:51:36.053Z,2.50
2022-12-08T12:54:29.507Z,2.40
2022-12-08T12:57:05.574Z,2.50
2022-12-08T12:59:42.696Z,3.00
2022-12-08T13:04:54.095Z,2.70
2022-12-08T13:07:25.733Z,3.47
2022-12-08T13:10:24.448Z,2.28
2022-12-08T13:13:16.580Z,4.50
2022-12-08T13:15:56.485Z,3.92
2022-12-08T13:18:28.968Z,3.10
2022-12-08T13:21:03.432Z,2.33
2022-12-08T13:23:48.778Z,3.10
2022-12-08T13:26:19.685Z,2.97
2022-12-08T13:34:07.943Z,2.65
2022-12-08T13:36:38.911Z,2.97
2022-12-08T13:39:07.635Z,3.75
2022-12-08T13:41:44.386Z,2.80
2022-12-08T13:45:18.746Z,2.60
2022-12-08T13:47:34.883Z,3.40
2022-12-08T13:58:44.109Z,4.72
2022-12-08T14:01:16.755Z,4.65
2022-12-08T14:04:20.372Z,3.92
2022-12-08T14:06:39.073Z,4.95
2022-12-08T14:09:11.432Z,4.88
2022-12-08T14:11:42.363Z,5.70
2022-12-08T14:14:27.261Z,5.35
2022-12-08T14:17:06.057Z,5.03
2022-12-08T14:19:35.245Z,5.25
2022-12-08T14:22:14.061Z,6.05
2022-12-08T14:24:45.264Z,7.18
2022-12-08T14:27:16.573Z,7.97
2022-12-08T14:29:56.365Z,6.75
2022-12-08T14:32:24.880Z,5.93
2022-12-08T14:35:32.103Z,5.38
2022-12-08T14:38:01.563Z,5.30
2022-12-08T14:40:48.722Z,6.43
2022-12-08T14:43:20.876Z,10.35
2022-12-08T14:45:50.831Z,10.77
2022-12-08T14:48:23.490Z,11.00
2022-12-08T14:51:15.060Z,12.65
2022-12-08T14:53:58.802Z,10.10
2022-12-08T14:56:36.434Z,10.88
2022-12-08T14:59:23.085Z,10.10
2022-12-08T15:01:53.370Z,10.63
2022-12-08T15:04:28.807Z,10.50
2022-12-08T15:07:04.810Z,10.10
2022-12-08T15:09:36.419Z,11.07
2022-12-08T15:12:12.202Z,7.95
2022-12-08T15:15:14.580Z,6.70
2022-12-08T15:17:57.559Z,4.43
2022-12-08T15:20:39.413Z,4.22
2022-12-08T15:23:17.637Z,3.60
2022-12-08T15:25:44.592Z,3.45
2022-12-08T15:28:17.018Z,3.15
2022-12-08T15:30:44.016Z,3.35
2022-12-08T15:33:10.747Z,3.33
2022-12-08T15:35:40.925Z,4.22
2022-12-08T15:38:30.838Z,3.72
2022-12-08T15:43:28.240Z,3.67
2022-12-08T15:45:59.669Z,3.30
2022-12-08T15:48:29.393Z,3.10
2022-12-08T15:50:57.012Z,3.30
2022-12-08T15:53:26.485Z,4.05
2022-12-08T15:56:25.896Z,3.17
2022-12-08T15:58:56.919Z,4.72
2022-12-08T16:01:24.860Z,12.18
2022-12-08T16:09:33.337Z,4.53
2022-12-08T16:12:18.991Z,3.90
2022-12-08T16:17:34.023Z,7.13
2022-12-08T16:20:01.750Z,9.35
2022-12-08T16:25:21.385Z,9.27
2022-12-08T16:28:12.468Z,9.48
2022-12-08T16:30:41.261Z,12.95
2022-12-08T16:33:08.143Z,9.32
2022-12-08T16:35:35.037Z,10.07
2022-12-08T16:38:01.930Z,12.25
2022-12-08T16:40:28.879Z,11.93
2022-12-08T16:42:55.833Z,11.05
2022-12-08T16:45:24.502Z,15.07
2022-12-08T16:47:52.612Z,15.85
2022-12-08T16:50:26.955Z,16.77
2022-12-08T16:53:08.004Z,17.02
2022-12-08T16:55:35.406Z,17.70
2022-12-08T16:58:02.834Z,23.48
2022-12-08T17:00:30.893Z,26.45
2022-12-08T17:02:59.082Z,23.58
2022-12-08T17:05:26.814Z,19.90
2022-12-08T17:07:54.818Z,28.00
2022-12-08T17:10:27.845Z,30.85
2022-12-08T17:12:55.268Z,26.50
2022-12-08T17:15:25.651Z,24.35
2022-12-08T17:17:54.019Z,22.88
2022-12-08T17:20:25.090Z,19.33
2022-12-08T17:22:56.714Z,22.90
2022-12-08T17:25:24.219Z,22.13
2022-12-08T17:27:51.290Z,21.17
2022-12-08T17:30:19.079Z,20.27
2022-12-08T17:32:46.295Z,19.30
2022-12-08T17:35:14.464Z,18.48
2022-12-08T17:37:43.371Z,22.30
2022-12-08T17:40:12.560Z,20.92
2022-12-08T17:42:39.483Z,25.20
2022-12-08T17:45:08.129Z,21.13
2022-12-08T17:47:35.696Z,18.63
2022-12-08T17:50:03.060Z,19.17
2022-12-08T17:52:30.399Z,21.35
2022-12-08T17:54:57.796Z,18.13
2022-12-08T17:57:25.337Z,17.27
2022-12-08T17:59:52.607Z,21.50
2022-12-08T18:02:19.784Z,22.33
2022-12-08T18:04:46.602Z,24.33
2022-12-08T18:07:13.654Z,20.73
2022-12-08T18:09:40.742Z,18.25
2022-12-08T18:12:07.880Z,17.60
2022-12-08T18:14:34.625Z,18.60
2022-12-08T18:17:01.692Z,28.02
2022-12-08T18:19:28.929Z,38.80
2022-12-08T18:21:56.091Z,33.58
2022-12-08T18:24:23.946Z,30.50
2022-12-08T18:26:55.466Z,30.02
2022-12-08T18:29:22.931Z,32.83
2022-12-08T18:31:50.324Z,29.65
2022-12-08T18:34:19.147Z,28.27
2022-12-08T18:36:46.677Z,31.15
2022-12-08T18:39:23.476Z,29.83
2022-12-08T18:41:52.336Z,27.23
2022-12-08T18:44:19.762Z,18.83
2022-12-08T18:46:47.235Z,14.38
2022-12-08T18:49:16.523Z,13.60
2022-12-08T18:51:44.259Z,13.57
2022-12-08T18:54:12.418Z,17.52
2022-12-08T18:56:39.905Z,16.58
2022-12-08T18:59:11.594Z,12.35
2022-12-08T19:01:40.133Z,13.85
2022-12-08T19:06:56.975Z,9.98
2022-12-08T19:09:26.912Z,9.98
2022-12-08T19:11:55.066Z,13.65
2022-12-08T19:14:27.860Z,12.43
2022-12-08T19:16:58.453Z,13.95
2022-12-08T19:19:26.580Z,18.73
2022-12-08T19:21:54.092Z,21.60
2022-12-08T19:24:21.134Z,18.75
2022-12-08T19:26:47.952Z,16.95
2022-12-08T19:29:15.126Z,17.63
2022-12-08T19:31:42.158Z,17.83
2022-12-08T19:34:11.996Z,14.93
2022-12-08T19:36:42.695Z,22.25
2022-12-08T19:42:37.470Z,24.42
2022-12-08T19:45:12.024Z,31.05
2022-12-08T19:47:42.821Z,25.88
2022-12-08T19:52:56.731Z,34.08
2022-12-08T19:55:24.120Z,35.35
2022-12-08T19:57:52.121Z,23.55
2022-12-08T20:00:20.572Z,30.98
2022-12-08T20:02:48.557Z,25.35
2022-12-08T20:05:15.921Z,30.67
2022-12-08T20:07:44.270Z,26.25
2022-12-08T20:10:23.191Z,26.75
2022-12-08T20:12:50.227Z,25.73
2022-12-08T20:15:17.843Z,25.98
2022-12-08T20:17:45.135Z,32.33
2022-12-08T20:20:14.124Z,34.13
2022-12-08T20:22:41.910Z,26.60
2022-12-08T20:25:12.946Z,21.20
2022-12-08T20:27:41.498Z,16.70
2022-12-08T20:30:16.470Z,15.70
2022-12-08T20:32:44.920Z,13.63
2022-12-08T20:35:11.996Z,11.27
2022-12-08T20:37:39.134Z,7.22
2022-12-08T20:40:06.694Z,8.65
2022-12-08T20:42:33.881Z,11.82
2022-12-08T20:45:01.733Z,11.77
2022-12-08T20:47:28.835Z,9.65
2022-12-08T20:49:55.995Z,7.60
2022-12-08T20:52:23.019Z,7.30
2022-12-08T20:54:49.935Z,9.50
2022-12-08T20:57:17.008Z,10.88
2022-12-08T20:59:44.398Z,11.88
2022-12-08T21:02:11.725Z,12.18
2022-12-08T21:04:38.894Z,10.38
2022-12-08T21:07:06.128Z,9.63
2022-12-08T21:09:33.441Z,11.55
2022-12-08T21:12:00.496Z,13.05
2022-12-08T21:14:31.157Z,8.60
2022-12-08T21:16:58.497Z,9.15
2022-12-08T21:19:25.483Z,10.95
2022-12-08T21:21:52.536Z,12.05
2022-12-08T21:24:19.714Z,13.70
2022-12-08T21:26:46.823Z,13.07
2022-12-08T21:29:13.742Z,12.40
2022-12-08T21:31:41.273Z,9.63
2022-12-08T21:34:08.357Z,9.95
2022-12-08T21:36:35.784Z,7.32
2022-12-08T21:39:03.127Z,7.15
2022-12-08T21:41:49.328Z,8.40
2022-12-08T21:44:20.272Z,7.13
2022-12-08T21:46:47.907Z,9.90
2022-12-08T21:49:15.711Z,4.90
2022-12-08T21:51:42.901Z,12.73
2022-12-08T21:54:16.711Z,11.77
2022-12-08T21:56:47.657Z,10.52
2022-12-08T21:59:15.408Z,5.28
2022-12-08T22:01:45.307Z,7.65
2022-12-08T22:04:16.032Z,5.18
2022-12-08T22:06:43.177Z,3.55
2022-12-08T22:09:11.904Z,2.53
2022-12-08T22:11:38.944Z,2.13
2022-12-08T22:14:09.584Z,2.65
2022-12-08T22:16:41.030Z,2.40
2022-12-08T22:19:08.115Z,2.03
2022-12-08T22:21:34.946Z,3.15
2022-12-08T22:24:01.781Z,2.33
2022-12-08T22:26:28.667Z,1.73
2022-12-08T22:28:55.439Z,1.85
2022-12-08T22:31:22.875Z,1.85
2022-12-08T22:33:51.092Z,1.98
2022-12-08T22:36:22.382Z,2.38
2022-12-08T22:38:50.494Z,3.00
2022-12-08T22:41:18.165Z,2.50
2022-12-08T22:43:45.761Z,2.47
2022-12-08T22:46:21.590Z,2.20
2022-12-08T22:48:49.097Z,1.67
2022-12-08T22:51:16.985Z,1.90
2022-12-08T22:53:44.556Z,1.60
2022-12-08T22:56:13.505Z,1.35
2022-12-08T22:58:43.043Z,2.00
2022-12-08T23:01:22.591Z,1.50
2022-12-08T23:03:49.732Z,1.70
2022-12-08T23:06:17.253Z,2.38
2022-12-08T23:08:45.267Z,2.05
2022-12-08T23:11:12.493Z,1.98
2022-12-08T23:13:42.382Z,2.45
2022-12-08T23:16:10.943Z,2.95
2022-12-08T23:18:41.173Z,3.05
2022-12-08T23:21:11.166Z,2.83
2022-12-08T23:23:38.572Z,2.58
2022-12-08T23:26:13.959Z,3.08
2022-12-08T23:28:40.751Z,2.97
2022-12-08T23:31:08.524Z,5.18
2022-12-08T23:33:35.608Z,3.90
2022-12-08T23:36:02.581Z,3.05
2022-12-08T23:38:29.542Z,4.13
2022-12-08T23:41:04.326Z,2.90
2022-12-08T23:43:31.432Z,3.25
2022-12-08T23:45:58.934Z,2.42
2022-12-08T23:48:28.239Z,3.15
2022-12-08T23:50:56.243Z,2.45
2022-12-08T23:53:23.964Z,2.05
2022-12-08T23:55:50.807Z,5.47
2022-12-08T23:58:17.799Z,9.07
